createdAt,value
2019-05-15T00:00:15.744Z,16.00
2019-05-15T00:01:15.721Z,20.00
2019-05-15T00:02:15.747Z,20.00
2019-05-15T00:03:15.704Z,20.00
2019-05-15T00:04:15.685Z,20.00
2019-05-15T00:05:15.676Z,20.00
2019-05-15T00:06:15.668Z,20.00
2019-05-15T00:07:18.197Z,20.00
2019-05-15T00:08:18.231Z,20.00
2019-05-15T00:09:15.650Z,20.00
2019-05-15T00:10:17.933Z,20.00
2019-05-15T00:11:15.613Z,20.00
2019-05-15T00:12:15.599Z,24.00
2019-05-15T00:13:15.617Z,24.00
2019-05-15T00:14:18.074Z,20.00
2019-05-15T00:15:15.567Z,20.00
2019-05-15T00:16:17.974Z,24.00
2019-05-15T00:17:15.541Z,24.00
2019-05-15T00:18:15.537Z,24.00
2019-05-15T00:19:15.565Z,24.00
2019-05-15T00:20:15.519Z,24.00
2019-05-15T00:21:17.840Z,24.00
2019-05-15T00:22:15.493Z,28.00
2019-05-15T00:23:15.480Z,24.00
2019-05-15T00:24:17.787Z,28.00
2019-05-15T00:25:15.511Z,28.00
2019-05-15T00:26:29.889Z,28.00
2019-05-15T00:27:15.433Z,32.00
2019-05-15T00:28:15.424Z,32.00
2019-05-15T00:29:17.408Z,32.00
2019-05-15T00:30:15.431Z,32.00
2019-05-15T00:31:15.499Z,32.00
2019-05-15T00:32:15.980Z,36.00
2019-05-15T00:33:15.386Z,36.00
2019-05-15T00:34:15.353Z,40.00
2019-05-15T00:35:15.350Z,40.00
2019-05-15T00:36:15.345Z,44.00
2019-05-15T00:37:15.326Z,44.00
2019-05-15T00:38:15.327Z,44.00
2019-05-15T00:39:15.298Z,52.00
2019-05-15T00:40:15.288Z,48.00
2019-05-15T00:41:15.313Z,52.00
2019-05-15T00:42:15.266Z,56.00
2019-05-15T00:43:15.260Z,60.00
2019-05-15T00:44:15.258Z,64.00
2019-05-15T00:45:15.232Z,68.00
2019-05-15T00:46:15.233Z,72.00
2019-05-15T00:47:15.251Z,76.00
2019-05-15T00:48:15.205Z,84.00
2019-05-15T00:49:15.192Z,88.00
2019-05-15T00:50:15.188Z,92.00
2019-05-15T00:51:15.169Z,100.00
2019-05-15T00:52:15.235Z,104.00
2019-05-15T00:53:15.233Z,112.00
2019-05-15T00:54:15.146Z,120.00
2019-05-15T00:55:15.122Z,128.00
2019-05-15T00:56:15.111Z,140.00
2019-05-15T00:57:28.405Z,148.00
2019-05-15T00:58:15.107Z,156.00
2019-05-15T00:59:24.167Z,168.00
2019-05-15T01:00:16.073Z,180.00
2019-05-15T01:01:15.073Z,188.00
2019-05-15T01:02:15.043Z,204.00
2019-05-15T01:03:15.037Z,212.00
2019-05-15T01:04:15.075Z,228.00
2019-05-15T01:05:15.017Z,244.00
2019-05-15T01:06:15.017Z,256.00
2019-05-15T01:07:14.990Z,272.00
2019-05-15T01:08:14.978Z,292.00
2019-05-15T01:09:14.975Z,304.00
2019-05-15T01:10:14.992Z,324.00
2019-05-15T01:11:14.950Z,344.00
2019-05-15T01:12:14.940Z,364.00
2019-05-15T01:13:14.925Z,388.00
2019-05-15T01:14:14.918Z,404.00
2019-05-15T01:15:14.987Z,428.00
2019-05-15T01:16:14.937Z,452.00
2019-05-15T01:17:15.506Z,480.00
2019-05-15T01:18:14.876Z,508.00
2019-05-15T01:19:15.127Z,532.00
2019-05-15T01:20:14.859Z,560.00
2019-05-15T01:21:14.850Z,588.00
2019-05-15T01:22:14.829Z,616.00
2019-05-15T01:23:14.819Z,652.00
2019-05-15T01:24:14.801Z,680.00
2019-05-15T01:25:14.830Z,716.00
2019-05-15T01:26:14.787Z,744.00
2019-05-15T01:27:14.779Z,788.00
2019-05-15T01:28:28.970Z,800.00
2019-05-15T01:29:14.754Z,836.00
2019-05-15T01:30:14.735Z,876.00
2019-05-15T01:31:14.743Z,912.00
2019-05-15T01:32:14.725Z,956.00
2019-05-15T01:33:14.718Z,992.00
2019-05-15T01:34:14.697Z,1036.00
2019-05-15T01:35:14.700Z,1076.00
2019-05-15T01:36:14.673Z,1120.00
2019-05-15T01:37:14.769Z,1164.00
2019-05-15T01:38:14.652Z,1208.00
2019-05-15T01:39:14.635Z,1252.00
2019-05-15T01:40:14.624Z,1296.00
2019-05-15T01:41:14.638Z,1340.00
2019-05-15T01:42:14.641Z,1388.00
2019-05-15T01:43:14.593Z,1436.00
2019-05-15T01:44:14.582Z,1484.00
2019-05-15T01:45:14.576Z,1532.00
2019-05-15T01:46:14.565Z,1580.00
2019-05-15T01:47:14.558Z,1632.00
2019-05-15T01:48:14.554Z,1684.00
2019-05-15T01:49:14.529Z,1736.00
2019-05-15T01:50:14.517Z,1788.00
2019-05-15T01:51:14.503Z,1836.00
2019-05-15T01:52:14.499Z,1892.00
2019-05-15T01:53:14.503Z,1940.00
2019-05-15T01:54:14.474Z,1996.00
2019-05-15T01:55:14.464Z,2052.00
2019-05-15T01:56:14.454Z,2104.00
2019-05-15T01:57:14.440Z,2156.00
2019-05-15T01:58:14.463Z,2212.00
2019-05-15T01:59:28.412Z,2268.00
2019-05-15T02:00:14.408Z,2320.00
2019-05-15T02:01:14.405Z,2376.00
2019-05-15T02:02:14.413Z,2428.00
2019-05-15T02:03:14.382Z,2484.00
2019-05-15T02:04:14.434Z,2536.00
2019-05-15T02:05:14.368Z,2596.00
2019-05-15T02:06:14.338Z,2652.00
2019-05-15T02:07:14.336Z,2708.00
2019-05-15T02:08:14.365Z,2760.00
2019-05-15T02:09:14.328Z,2816.00
2019-05-15T02:10:14.335Z,2868.00
2019-05-15T02:11:14.280Z,2920.00
2019-05-15T02:12:14.286Z,2980.00
2019-05-15T02:13:14.263Z,3028.00
2019-05-15T02:14:14.249Z,3084.00
2019-05-15T02:15:14.238Z,3136.00
2019-05-15T02:16:14.232Z,3184.00
2019-05-15T02:17:14.223Z,3236.00
2019-05-15T02:18:14.205Z,3292.00
2019-05-15T02:19:14.203Z,3340.00
2019-05-15T02:20:14.222Z,3388.00
2019-05-15T02:21:14.177Z,3440.00
2019-05-15T02:22:14.160Z,3492.00
2019-05-15T02:23:14.160Z,3548.00
2019-05-15T02:24:14.139Z,3596.00
2019-05-15T02:25:14.126Z,3652.00
2019-05-15T02:26:14.122Z,3704.00
2019-05-15T02:27:14.110Z,3760.00
2019-05-15T02:28:14.093Z,3812.00
2019-05-15T02:29:18.965Z,3864.00
2019-05-15T02:31:30.243Z,3988.00
2019-05-15T02:32:30.145Z,4044.00
2019-05-15T02:33:30.147Z,4092.00
2019-05-15T02:34:30.046Z,4148.00
2019-05-15T02:35:29.719Z,4204.00
2019-05-15T02:36:29.522Z,4260.00
2019-05-15T02:37:29.622Z,4316.00
2019-05-15T02:38:29.801Z,4400.00
2019-05-15T02:39:29.272Z,9580.00
2019-05-15T02:40:29.581Z,19648.00
2019-05-15T02:41:29.813Z,32000.00
2019-05-15T02:42:29.303Z,44256.00
2019-05-15T02:43:29.766Z,53248.00
2019-05-15T02:44:29.358Z,55392.00
2019-05-15T02:45:30.068Z,56000.00
2019-05-15T02:46:30.075Z,55936.00
2019-05-15T02:47:29.250Z,54944.00
2019-05-15T02:48:29.172Z,54400.00
2019-05-15T02:49:30.245Z,55456.00
2019-05-15T02:50:29.322Z,56352.00
2019-05-15T02:51:30.100Z,57088.00
2019-05-15T02:52:29.507Z,58368.00
2019-05-15T02:53:29.898Z,57504.00
2019-05-15T02:54:29.961Z,57280.00
2019-05-15T02:55:29.728Z,57568.00
2019-05-15T02:56:29.476Z,57888.00
2019-05-15T02:57:30.109Z,57600.00
2019-05-15T02:58:29.358Z,56736.00
2019-05-15T02:59:29.227Z,57120.00
2019-05-15T03:00:42.484Z,56576.00
2019-05-15T03:02:42.942Z,58848.00
2019-05-15T03:03:50.402Z,58272.00
2019-05-15T03:04:42.915Z,58144.00
2019-05-15T03:05:42.914Z,58720.00
2019-05-15T03:06:42.905Z,57440.00
2019-05-15T03:07:42.878Z,56224.00
2019-05-15T03:08:42.872Z,56256.00
2019-05-15T03:09:42.862Z,56160.00
2019-05-15T03:10:42.842Z,55200.00
2019-05-15T03:11:42.994Z,55616.00
2019-05-15T03:12:42.889Z,56928.00
2019-05-15T03:13:43.695Z,56832.00
2019-05-15T03:14:42.799Z,55776.00
2019-05-15T03:15:42.795Z,55840.00
2019-05-15T03:16:42.782Z,55328.00
2019-05-15T03:17:42.775Z,54304.00
2019-05-15T03:18:42.756Z,54880.00
2019-05-15T03:19:42.742Z,55168.00
2019-05-15T03:20:42.737Z,55264.00
2019-05-15T03:21:42.755Z,55808.00
2019-05-15T03:22:42.715Z,55744.00
2019-05-15T03:23:42.702Z,56000.00
2019-05-15T03:24:42.691Z,55552.00
2019-05-15T03:25:42.680Z,55648.00
2019-05-15T03:26:42.673Z,57728.00
2019-05-15T03:27:42.682Z,57952.00
2019-05-15T03:28:42.646Z,56768.00
2019-05-15T03:29:42.631Z,55936.00
2019-05-15T03:31:13.473Z,56192.00
2019-05-15T03:32:01.231Z,57376.00
2019-05-15T03:32:53.884Z,58816.00
2019-05-15T03:33:46.479Z,59360.00
2019-05-15T03:34:56.529Z,58880.00
2019-05-15T03:35:44.594Z,58112.00
2019-05-15T03:36:45.195Z,57280.00
2019-05-15T03:37:42.545Z,57824.00
2019-05-15T03:38:42.553Z,58240.00
2019-05-15T03:39:46.709Z,58528.00
2019-05-15T03:40:43.518Z,57952.00
2019-05-15T03:41:42.500Z,58528.00
2019-05-15T03:42:42.487Z,60288.00
2019-05-15T03:43:42.517Z,61568.00
2019-05-15T03:44:42.483Z,62240.00
2019-05-15T03:45:42.480Z,62208.00
2019-05-15T03:46:42.470Z,62080.00
2019-05-15T03:47:42.437Z,62400.00
2019-05-15T03:48:42.439Z,63040.00
2019-05-15T03:49:42.429Z,63488.00
2019-05-15T03:50:42.405Z,62496.00
2019-05-15T03:51:45.763Z,62240.00
2019-05-15T03:52:42.389Z,62944.00
2019-05-15T03:53:42.377Z,63424.00
2019-05-15T03:54:42.362Z,61728.00
2019-05-15T03:55:42.395Z,60992.00
2019-05-15T03:56:42.335Z,61824.00
2019-05-15T03:57:42.331Z,62720.00
2019-05-15T03:58:42.327Z,62560.00
2019-05-15T03:59:42.304Z,62176.00
2019-05-15T04:00:42.292Z,63968.00
2019-05-15T04:01:43.759Z,65856.00
2019-05-15T04:02:42.279Z,66816.00
2019-05-15T04:03:42.257Z,66304.00
2019-05-15T04:04:42.282Z,64864.00
2019-05-15T04:05:52.475Z,65120.00
2019-05-15T04:06:50.290Z,65216.00
2019-05-15T04:07:42.823Z,63456.00
2019-05-15T04:08:42.205Z,64320.00
2019-05-15T04:09:42.198Z,65152.00
2019-05-15T04:10:42.189Z,64000.00
2019-05-15T04:11:42.178Z,64416.00
2019-05-15T04:12:42.156Z,65760.00
2019-05-15T04:13:42.157Z,66720.00
2019-05-15T04:14:42.141Z,66112.00
2019-05-15T04:15:42.127Z,65216.00
2019-05-15T04:16:42.129Z,64768.00
2019-05-15T04:17:42.113Z,63744.00
2019-05-15T04:18:42.104Z,62720.00
2019-05-15T04:19:42.144Z,61408.00
2019-05-15T04:20:42.079Z,61408.00
2019-05-15T04:21:45.002Z,61408.00
2019-05-15T04:22:42.067Z,61760.00
2019-05-15T04:23:42.053Z,62624.00
2019-05-15T04:24:42.041Z,62752.00
2019-05-15T04:25:42.018Z,62080.00
2019-05-15T04:26:42.010Z,61216.00
2019-05-15T04:27:42.010Z,64832.00
2019-05-15T04:28:42.346Z,67040.00
2019-05-15T04:29:41.981Z,64512.00
2019-05-15T04:30:41.963Z,63680.00
2019-05-15T04:31:58.978Z,65632.00
2019-05-15T04:32:42.944Z,64000.00
2019-05-15T04:33:41.935Z,60448.00
2019-05-15T04:34:41.969Z,57408.00
2019-05-15T04:35:41.906Z,56064.00
2019-05-15T04:36:44.494Z,56384.00
2019-05-15T04:37:55.417Z,56832.00
2019-05-15T04:38:41.878Z,57216.00
2019-05-15T04:39:41.864Z,57376.00
2019-05-15T04:40:41.863Z,56256.00
2019-05-15T04:41:41.857Z,56160.00
2019-05-15T04:42:41.899Z,56288.00
2019-05-15T04:43:45.156Z,56768.00
2019-05-15T04:44:42.327Z,56064.00
2019-05-15T04:45:41.849Z,54624.00
2019-05-15T04:46:41.828Z,52704.00
2019-05-15T04:47:41.787Z,52896.00
2019-05-15T04:48:41.770Z,52320.00
2019-05-15T04:49:41.789Z,51744.00
2019-05-15T04:50:41.908Z,50784.00
2019-05-15T04:51:41.881Z,49536.00
2019-05-15T04:52:43.312Z,47264.00
2019-05-15T04:53:41.735Z,45312.00
2019-05-15T04:54:41.709Z,45920.00
2019-05-15T04:55:41.692Z,48544.00
2019-05-15T04:56:41.708Z,48256.00
2019-05-15T04:57:41.783Z,46240.00
2019-05-15T04:58:41.684Z,46144.00
2019-05-15T04:59:41.655Z,46656.00
2019-05-15T05:00:41.657Z,46816.00
2019-05-15T05:01:41.638Z,45120.00
2019-05-15T05:02:41.662Z,44128.00
2019-05-15T05:03:45.882Z,41472.00
2019-05-15T05:04:41.600Z,39136.00
2019-05-15T05:05:41.668Z,39040.00
2019-05-15T05:06:41.674Z,38176.00
2019-05-15T05:07:41.852Z,37344.00
2019-05-15T05:08:54.886Z,37440.00
2019-05-15T05:09:41.545Z,36928.00
2019-05-15T05:10:41.539Z,36192.00
2019-05-15T05:11:41.532Z,28800.00
2019-05-15T05:12:42.680Z,20320.00
2019-05-15T05:13:41.504Z,18080.00
2019-05-15T05:14:41.519Z,17792.00
2019-05-15T05:15:41.475Z,18432.00
2019-05-15T05:16:41.463Z,18784.00
2019-05-15T05:17:41.458Z,18176.00
2019-05-15T05:18:41.863Z,17248.00
2019-05-15T05:19:41.449Z,16768.00
2019-05-15T05:20:41.437Z,16800.00
2019-05-15T05:21:41.423Z,16480.00
2019-05-15T05:22:41.407Z,17344.00
2019-05-15T05:23:41.407Z,18112.00
2019-05-15T05:24:41.396Z,19328.00
2019-05-15T05:25:41.369Z,20288.00
2019-05-15T05:26:41.363Z,23040.00
2019-05-15T05:27:41.342Z,34272.00
2019-05-15T05:28:41.439Z,45856.00
2019-05-15T05:29:42.400Z,44736.00
2019-05-15T05:30:41.834Z,36032.00
2019-05-15T05:31:41.330Z,33120.00
2019-05-15T05:32:41.291Z,33952.00
2019-05-15T05:33:41.281Z,35040.00
2019-05-15T05:34:41.267Z,30784.00
2019-05-15T05:35:41.263Z,24608.00
2019-05-15T05:36:41.366Z,24000.00
2019-05-15T05:37:41.304Z,23456.00
2019-05-15T05:38:41.532Z,26912.00
2019-05-15T05:39:52.916Z,26688.00
2019-05-15T05:40:41.217Z,21600.00
2019-05-15T05:41:41.350Z,20512.00
2019-05-15T05:42:41.184Z,20768.00
2019-05-15T05:43:41.170Z,21312.00
2019-05-15T05:44:42.759Z,23296.00
2019-05-15T05:45:41.193Z,24448.00
2019-05-15T05:46:41.131Z,22144.00
2019-05-15T05:47:41.125Z,19808.00
2019-05-15T05:48:41.108Z,20192.00
2019-05-15T05:49:41.104Z,20928.00
2019-05-15T05:50:44.151Z,19680.00
2019-05-15T05:51:41.095Z,19520.00
2019-05-15T05:52:41.068Z,20704.00
2019-05-15T05:53:41.060Z,19872.00
2019-05-15T05:54:41.399Z,19904.00
2019-05-15T05:55:41.066Z,19008.00
2019-05-15T05:56:41.862Z,18688.00
2019-05-15T05:57:41.150Z,16112.00
2019-05-15T05:58:42.211Z,17696.00
2019-05-15T05:59:42.083Z,18848.00
2019-05-15T06:00:41.266Z,20384.00
2019-05-15T06:01:44.202Z,19872.00
2019-05-15T06:02:48.096Z,20064.00
2019-05-15T06:03:41.966Z,19296.00
2019-05-15T06:04:41.093Z,19200.00
2019-05-15T06:05:40.980Z,19712.00
2019-05-15T06:06:41.037Z,19264.00
2019-05-15T06:07:40.906Z,19552.00
2019-05-15T06:08:40.930Z,19808.00
2019-05-15T06:09:40.884Z,20800.00
2019-05-15T06:10:53.333Z,20448.00
2019-05-15T06:11:40.879Z,19424.00
2019-05-15T06:12:40.882Z,19968.00
2019-05-15T06:13:40.889Z,22944.00
2019-05-15T06:14:40.846Z,26208.00
2019-05-15T06:15:41.126Z,23360.00
2019-05-15T06:16:40.805Z,24640.00
2019-05-15T06:17:40.797Z,27744.00
2019-05-15T06:18:40.796Z,26592.00
2019-05-15T06:19:40.843Z,27808.00
2019-05-15T06:20:40.778Z,30976.00
2019-05-15T06:21:53.756Z,33504.00
2019-05-15T06:22:41.777Z,37248.00
2019-05-15T06:23:45.435Z,37568.00
2019-05-15T06:24:41.731Z,21408.00
2019-05-15T06:25:41.225Z,10428.00
2019-05-15T06:26:40.703Z,9772.00
2019-05-15T06:27:40.689Z,9664.00
2019-05-15T06:28:40.702Z,9620.00
2019-05-15T06:29:40.681Z,9552.00
2019-05-15T06:30:40.693Z,9600.00
2019-05-15T06:31:40.666Z,9612.00
2019-05-15T06:32:40.776Z,9600.00
2019-05-15T06:33:40.616Z,9616.00
2019-05-15T06:34:40.633Z,9616.00
2019-05-15T06:35:40.602Z,9624.00
2019-05-15T06:36:40.592Z,9632.00
2019-05-15T06:37:40.569Z,9644.00
2019-05-15T06:38:40.719Z,9640.00
2019-05-15T06:39:40.556Z,9656.00
2019-05-15T06:40:40.540Z,9660.00
2019-05-15T06:41:53.451Z,9664.00
2019-05-15T06:42:40.583Z,9600.00
2019-05-15T06:43:40.540Z,9592.00
2019-05-15T06:44:40.671Z,9616.00
2019-05-15T06:45:40.493Z,9700.00
2019-05-15T06:46:40.479Z,9712.00
2019-05-15T06:47:40.502Z,9740.00
2019-05-15T06:48:40.448Z,9712.00
2019-05-15T06:49:40.450Z,9700.00
2019-05-15T06:50:40.739Z,9680.00
2019-05-15T06:51:40.416Z,9760.00
2019-05-15T06:52:40.404Z,9712.00
2019-05-15T06:53:40.438Z,9772.00
2019-05-15T06:54:40.480Z,9788.00
2019-05-15T06:55:40.422Z,9740.00
2019-05-15T06:56:40.367Z,9744.00
2019-05-15T06:57:40.367Z,9752.00
2019-05-15T06:58:40.378Z,9756.00
2019-05-15T06:59:40.381Z,9688.00
2019-05-15T07:00:40.415Z,9780.00
2019-05-15T07:01:40.364Z,9800.00
2019-05-15T07:02:40.305Z,9780.00
2019-05-15T07:03:40.285Z,9796.00
2019-05-15T07:04:40.289Z,9808.00
2019-05-15T07:05:40.467Z,9808.00
2019-05-15T07:06:40.274Z,9896.00
2019-05-15T07:07:40.246Z,10012.00
2019-05-15T07:08:40.335Z,9996.00
2019-05-15T07:09:40.220Z,10024.00
2019-05-15T07:10:40.223Z,10032.00
2019-05-15T07:11:40.211Z,10032.00
2019-05-15T07:12:51.554Z,10020.00
2019-05-15T07:13:40.167Z,10220.00
2019-05-15T07:14:40.177Z,10312.00
2019-05-15T07:15:40.150Z,10296.00
2019-05-15T07:16:40.132Z,10296.00
2019-05-15T07:17:40.957Z,10456.00
2019-05-15T07:18:40.124Z,10080.00
2019-05-15T07:19:40.101Z,10016.00
2019-05-15T07:20:40.567Z,9984.00
2019-05-15T07:21:40.084Z,9784.00
2019-05-15T07:22:40.197Z,9900.00
2019-05-15T07:23:40.069Z,9808.00
2019-05-15T07:24:40.086Z,9712.00
2019-05-15T07:25:40.054Z,9852.00
2019-05-15T07:26:40.027Z,9500.00
2019-05-15T07:27:40.018Z,9476.00
2019-05-15T07:28:40.012Z,9104.00
2019-05-15T07:29:40.010Z,9668.00
2019-05-15T07:30:41.080Z,9972.00
2019-05-15T07:31:49.539Z,10212.00
2019-05-15T07:32:40.050Z,10368.00
2019-05-15T07:33:43.615Z,10412.00
2019-05-15T07:34:39.935Z,10548.00
2019-05-15T07:35:39.917Z,10544.00
2019-05-15T07:36:39.913Z,10536.00
2019-05-15T07:37:39.916Z,10552.00
2019-05-15T07:38:39.883Z,10460.00
2019-05-15T07:39:39.894Z,10416.00
2019-05-15T07:40:39.878Z,10420.00
2019-05-15T07:41:39.875Z,10568.00
2019-05-15T07:42:39.852Z,10644.00
2019-05-15T07:43:39.870Z,10624.00
2019-05-15T07:44:40.268Z,10524.00
2019-05-15T07:45:43.710Z,10500.00
2019-05-15T07:46:39.801Z,10596.00
2019-05-15T07:47:39.801Z,10620.00
2019-05-15T07:48:39.794Z,10596.00
2019-05-15T07:49:39.767Z,10600.00
2019-05-15T07:50:39.834Z,10576.00
2019-05-15T07:51:40.489Z,10528.00
2019-05-15T07:52:40.591Z,10544.00
2019-05-15T07:53:40.481Z,10380.00
2019-05-15T07:54:39.754Z,10344.00
2019-05-15T07:55:39.701Z,10500.00
2019-05-15T07:56:39.755Z,10476.00
2019-05-15T07:57:39.928Z,10428.00
2019-05-15T07:58:39.718Z,10484.00
2019-05-15T07:59:39.775Z,10456.00
2019-05-15T08:00:39.737Z,10548.00
2019-05-15T08:01:39.634Z,10468.00
2019-05-15T08:02:53.012Z,10576.00
2019-05-15T08:03:55.102Z,10552.00
2019-05-15T08:04:40.601Z,10560.00
2019-05-15T08:05:53.605Z,10604.00
2019-05-15T08:06:40.570Z,10660.00
2019-05-15T08:07:39.603Z,10532.00
2019-05-15T08:08:39.629Z,10612.00
2019-05-15T08:09:39.540Z,10612.00
2019-05-15T08:10:39.831Z,10664.00
2019-05-15T08:11:39.611Z,10740.00
2019-05-15T08:12:39.512Z,10796.00
2019-05-15T08:13:39.557Z,10856.00
2019-05-15T08:14:39.487Z,10904.00
2019-05-15T08:15:39.598Z,10972.00
2019-05-15T08:16:40.020Z,10960.00
2019-05-15T08:17:58.552Z,10980.00
2019-05-15T08:18:40.450Z,10996.00
2019-05-15T08:19:39.437Z,10244.00
2019-05-15T08:20:39.421Z,10976.00
2019-05-15T08:21:39.482Z,10336.00
2019-05-15T08:22:39.389Z,8960.00
2019-05-15T08:23:39.409Z,8712.00
2019-05-15T08:24:39.669Z,9852.00
2019-05-15T08:25:39.359Z,10296.00
2019-05-15T08:26:44.828Z,10200.00
2019-05-15T08:27:40.385Z,10624.00
2019-05-15T08:28:39.320Z,10324.00
2019-05-15T08:29:39.327Z,10448.00
2019-05-15T08:30:39.352Z,10556.00
2019-05-15T08:31:39.303Z,10552.00
2019-05-15T08:32:39.328Z,10548.00
2019-05-15T08:33:51.925Z,10556.00
2019-05-15T08:34:39.263Z,10556.00
2019-05-15T08:35:39.248Z,10544.00
2019-05-15T08:36:39.233Z,10524.00
2019-05-15T08:37:39.223Z,10528.00
2019-05-15T08:38:39.252Z,10524.00
2019-05-15T08:39:40.062Z,10512.00
2019-05-15T08:40:41.030Z,10512.00
2019-05-15T08:41:39.387Z,10504.00
2019-05-15T08:42:42.054Z,10484.00
2019-05-15T08:43:39.243Z,10484.00
2019-05-15T08:44:39.159Z,10472.00
2019-05-15T08:45:39.312Z,10448.00
2019-05-15T08:46:39.143Z,10428.00
2019-05-15T08:47:39.215Z,10420.00
2019-05-15T08:48:39.123Z,10424.00
2019-05-15T08:49:41.014Z,10412.00
2019-05-15T08:50:39.180Z,10388.00
2019-05-15T08:51:39.254Z,10328.00
2019-05-15T08:52:39.502Z,10304.00
2019-05-15T08:53:39.078Z,10312.00
2019-05-15T08:54:39.037Z,10304.00
2019-05-15T08:55:39.258Z,10292.00
2019-05-15T08:56:39.505Z,10288.00
2019-05-15T08:57:39.071Z,10028.00
2019-05-15T08:58:38.988Z,10260.00
2019-05-15T08:59:38.999Z,10228.00
2019-05-15T09:00:40.211Z,10204.00
2019-05-15T09:01:38.983Z,10220.00
2019-05-15T09:02:38.961Z,10216.00
2019-05-15T09:03:38.930Z,10220.00
2019-05-15T09:04:51.622Z,10208.00
2019-05-15T09:05:39.015Z,10208.00
2019-05-15T09:06:41.311Z,10188.00
2019-05-15T09:07:38.888Z,10184.00
2019-05-15T09:08:39.372Z,10132.00
2019-05-15T09:09:38.877Z,10168.00
2019-05-15T09:10:39.063Z,10164.00
2019-05-15T09:11:39.435Z,10152.00
2019-05-15T09:12:39.127Z,10144.00
2019-05-15T09:13:43.280Z,10132.00
2019-05-15T09:14:40.127Z,10136.00
2019-05-15T09:15:39.690Z,10088.00
2019-05-15T09:16:38.960Z,10120.00
2019-05-15T09:17:39.814Z,10120.00
2019-05-15T09:18:39.294Z,10124.00
2019-05-15T09:19:38.921Z,10116.00
2019-05-15T09:20:38.738Z,10004.00
2019-05-15T09:21:39.006Z,9920.00
2019-05-15T09:22:38.856Z,10096.00
2019-05-15T09:23:39.105Z,9988.00
2019-05-15T09:24:38.733Z,10080.00
2019-05-15T09:25:39.578Z,10084.00
2019-05-15T09:26:40.362Z,10012.00
2019-05-15T09:27:38.670Z,10008.00
2019-05-15T09:28:39.291Z,10076.00
2019-05-15T09:29:38.652Z,10032.00
2019-05-15T09:30:39.063Z,10064.00
2019-05-15T09:31:39.161Z,10056.00
2019-05-15T09:32:39.415Z,10060.00
2019-05-15T09:33:38.926Z,10048.00
2019-05-15T09:34:50.737Z,10032.00
2019-05-15T09:35:51.126Z,10016.00
2019-05-15T09:36:42.217Z,10008.00
2019-05-15T09:37:39.654Z,10008.00
2019-05-15T09:38:39.059Z,10004.00
2019-05-15T09:39:38.639Z,9996.00
2019-05-15T09:40:45.999Z,9992.00
2019-05-15T09:41:39.529Z,9996.00
2019-05-15T09:42:39.006Z,9980.00
2019-05-15T09:43:41.805Z,9972.00
2019-05-15T09:44:39.185Z,9960.00
2019-05-15T09:45:38.502Z,9960.00
2019-05-15T09:46:38.501Z,9924.00
2019-05-15T09:47:39.707Z,9940.00
2019-05-15T09:48:39.037Z,9952.00
2019-05-15T09:49:39.162Z,9968.00
2019-05-15T09:50:39.653Z,9960.00
2019-05-15T09:51:38.653Z,9964.00
2019-05-15T09:52:38.979Z,9972.00
2019-05-15T09:53:39.389Z,9968.00
2019-05-15T09:54:38.852Z,9960.00
2019-05-15T09:55:38.551Z,9952.00
2019-05-15T09:56:38.645Z,9976.00
2019-05-15T09:57:38.743Z,9992.00
2019-05-15T09:58:38.408Z,9992.00
2019-05-15T09:59:39.044Z,10012.00
2019-05-15T10:00:38.688Z,9956.00
2019-05-15T10:01:39.429Z,9992.00
2019-05-15T10:02:39.362Z,10000.00
2019-05-15T10:03:39.148Z,10032.00
2019-05-15T10:04:39.051Z,10028.00
2019-05-15T10:05:38.893Z,10024.00
2019-05-15T10:06:58.213Z,10020.00
2019-05-15T10:07:40.450Z,10048.00
2019-05-15T10:08:39.815Z,10056.00
2019-05-15T10:09:38.863Z,10076.00
2019-05-15T10:10:38.283Z,10892.00
2019-05-15T10:11:38.401Z,10904.00
2019-05-15T10:12:38.815Z,10900.00
2019-05-15T10:13:59.649Z,10904.00
2019-05-15T10:14:38.717Z,10920.00
2019-05-15T10:15:39.014Z,10944.00
2019-05-15T10:16:38.160Z,10952.00
2019-05-15T10:17:38.691Z,10160.00
2019-05-15T10:18:39.219Z,10180.00
2019-05-15T10:19:38.072Z,10200.00
2019-05-15T10:20:38.076Z,10212.00
2019-05-15T10:21:39.962Z,10224.00
2019-05-15T10:22:38.096Z,10216.00
2019-05-15T10:23:40.487Z,10252.00
2019-05-15T10:24:38.019Z,10324.00
2019-05-15T10:25:38.929Z,10392.00
2019-05-15T10:26:39.330Z,10432.00
2019-05-15T10:27:39.859Z,10480.00
2019-05-15T10:28:39.159Z,10516.00
2019-05-15T10:29:38.778Z,10532.00
2019-05-15T10:30:39.482Z,10548.00
2019-05-15T10:31:38.898Z,10568.00
2019-05-15T10:32:39.459Z,10600.00
2019-05-15T10:33:39.271Z,10660.00
2019-05-15T10:34:38.455Z,10720.00
2019-05-15T10:35:39.286Z,10736.00
2019-05-15T10:36:38.672Z,10716.00
2019-05-15T10:37:50.770Z,10340.00
2019-05-15T10:38:39.186Z,8292.00
2019-05-15T10:39:38.516Z,10636.00
2019-05-15T10:40:41.076Z,10608.00
2019-05-15T10:41:38.985Z,10612.00
2019-05-15T10:42:39.729Z,10612.00
2019-05-15T10:43:44.715Z,10636.00
2019-05-15T10:44:39.304Z,10724.00
2019-05-15T10:45:42.381Z,10792.00
2019-05-15T10:46:38.772Z,10892.00
2019-05-15T10:47:38.841Z,11004.00
2019-05-15T10:48:38.552Z,11136.00
2019-05-15T10:49:38.992Z,11284.00
2019-05-15T10:50:38.864Z,11492.00
2019-05-15T10:51:39.550Z,11752.00
2019-05-15T10:52:38.206Z,11816.00
2019-05-15T10:53:39.106Z,11892.00
2019-05-15T10:54:38.205Z,12012.00
2019-05-15T10:55:39.489Z,10316.00
2019-05-15T10:56:38.554Z,8280.00
2019-05-15T10:57:42.606Z,7172.00
2019-05-15T10:58:39.377Z,7432.00
2019-05-15T10:59:37.624Z,8876.00
2019-05-15T11:00:37.617Z,8336.00
2019-05-15T11:01:38.679Z,7644.00
2019-05-15T11:02:39.364Z,11832.00
2019-05-15T11:03:39.947Z,8916.00
2019-05-15T11:04:39.238Z,12056.00
2019-05-15T11:05:45.155Z,12596.00
2019-05-15T11:06:38.683Z,8276.00
2019-05-15T11:07:39.362Z,7600.00
2019-05-15T11:08:51.581Z,9096.00
2019-05-15T11:09:40.403Z,12472.00
2019-05-15T11:10:38.618Z,12428.00
2019-05-15T11:11:37.506Z,12520.00
2019-05-15T11:12:37.546Z,12576.00
2019-05-15T11:13:38.185Z,11868.00
2019-05-15T11:14:37.987Z,12700.00
2019-05-15T11:15:40.440Z,8596.00
2019-05-15T11:16:39.096Z,8336.00
2019-05-15T11:17:38.534Z,8328.00
2019-05-15T11:18:39.323Z,8232.00
2019-05-15T11:19:40.663Z,7464.00
2019-05-15T11:20:40.976Z,7412.00
2019-05-15T11:21:37.377Z,7456.00
2019-05-15T11:22:39.086Z,7580.00
2019-05-15T11:23:39.389Z,8216.00
2019-05-15T11:24:38.526Z,7332.00
2019-05-15T11:25:38.197Z,7092.00
2019-05-15T11:26:39.079Z,6852.00
2019-05-15T11:27:39.013Z,6600.00
2019-05-15T11:28:39.161Z,6420.00
2019-05-15T11:29:38.198Z,6384.00
2019-05-15T11:30:39.297Z,6380.00
2019-05-15T11:31:39.257Z,6420.00
2019-05-15T11:32:39.137Z,6484.00
2019-05-15T11:33:38.465Z,6404.00
2019-05-15T11:34:38.284Z,6340.00
2019-05-15T11:35:40.762Z,6308.00
2019-05-15T11:36:38.767Z,6416.00
2019-05-15T11:37:43.940Z,7460.00
2019-05-15T11:38:38.401Z,8576.00
2019-05-15T11:39:50.722Z,11304.00
2019-05-15T11:40:38.946Z,6752.00
2019-05-15T11:41:38.644Z,6744.00
2019-05-15T11:42:39.385Z,6800.00
2019-05-15T11:43:38.520Z,11008.00
2019-05-15T11:44:38.886Z,11352.00
2019-05-15T11:45:38.925Z,7520.00
2019-05-15T11:46:39.173Z,6816.00
2019-05-15T11:47:39.699Z,11336.00
2019-05-15T11:48:39.220Z,8480.00
2019-05-15T11:49:38.380Z,10980.00
2019-05-15T11:50:39.895Z,6880.00
2019-05-15T11:51:38.407Z,6824.00
2019-05-15T11:52:40.137Z,6948.00
2019-05-15T11:53:39.503Z,7044.00
2019-05-15T11:54:38.523Z,7044.00
2019-05-15T11:55:38.652Z,7092.00
2019-05-15T11:56:39.174Z,7212.00
2019-05-15T11:57:43.589Z,7128.00
2019-05-15T11:58:38.965Z,7180.00
2019-05-15T11:59:43.599Z,7084.00